Strathalbyn Racecourse, South Australia

10:43 AM CST on August 22, 2014 (GMT +0930)
Mount Barker | Change Station
CLOSE
Current Station
Personal Weather Station
Location: Mount Barker, SOUTH AUSTRALIA
Elevation: 1076 ft
Nearby Weather Stations

Elev 1076 ft 35.08 °S, 138.88 °E | Updated 13 minutes ago

Clear
Clear
65.3 °F
Feels Like 65.3 °F
N
3.1
Wind Variable Wind from NE
Gusts 10.7 mph

Today
High -- | Low -- °F
--% Chance of Precip.
Yesterday
High -- | Low -- °F
Precip. -- in
6:47 AM 5:47 PM
Waning Crescent, 11% visible
Pressure 30.30 in
Visibility -9999.0 miles
Clouds
Dew Point 39 °F
Humidity 38%
Rainfall 0.00 in
Snow Depth Not available.
UV Not available.
Pollen Not available.
Air Quality Not available.
Flu Activity Not available.
METAR YPAD 220100Z 02016KT CAVOK 19/01 Q1026 RMK 6SC080 NOSIG

More Conditions Fewer Conditions

Pressure 30.30 in
Visibility -9999.0 miles
Clouds
Dew Point 39 °F
Humidity 38%
Rainfall 0.00 in
Snow Depth Not available.
UV Not available.
Pollen Not available.
Air Quality Not available.
Flu Activity Not available.
METAR YPAD 220100Z 02016KT CAVOK 19/01 Q1026 RMK 6SC080 NOSIG

More Conditions Fewer Conditions

10-Day Weather Forecast

Almanac

Astronomy

Aug. 22, 2014 Rise Set
Actual Time 6:47 AM CST 5:47 PM CST
Civil Twilight 6:21 AM CST 6:13 PM CST
Nautical Twilight 5:52 AM CST 6:43 PM CST
Astronomical Twilight 5:22 AM CST 7:12 PM CST
Moon 4:16 AM CST 2:56 PM CST
Length of Visible Light 11h 51m
Length of Day
11h 00m
Tomorrow will be 1m 59s longer.
Waning Crescent, 11% of the Moon is Illuminated
Aug 21
Waning Crescent
Aug 25
New
Sep 2
First Quarter
Sep 8
Full
Sep 15
Last Quarter

Yesterday's Extremes

Country Highs Country Lows

Community

WunderPhotos

Upload Photos

1,746,098 photos uploaded!

Nearby

Snow Depth

Not available.

Earthquake Activity

City Distance Mag. Time & Date
No recent earthquake activity has been reported nearby.
Minimum magnitude displayed is 2.5.

Coastal Water Temperatures

Place Temperature
No Stations Reporting

Nearby Weather Stations